Time;durP1;ratioP1;P1;durP2;ratioP2;P2;SDS_P1;SDS_P2;PMS_P1;PMS_P2;Temp;Humidity;BMP_temperature;BMP_pressure;BME280_temperature;BME280_humidity;BME280_pressure;Samples;Min_cycle;Max_cycle;Signal;HPM_P1;HPM_P2
2022/09/28 00:00:10;;;;;;;1.90;1.70;;;8.90;99.90;;;;;;5024849;28;21036;-51
2022/09/28 00:02:38;;;;;;;1.90;1.57;;;8.90;99.90;;;;;;5027284;28;20513;-50
2022/09/28 00:05:05;;;;;;;2.57;2.10;;;8.90;99.90;;;;;;5027182;28;20964;-50
2022/09/28 00:07:32;;;;;;;1.67;1.57;;;8.90;99.90;;;;;;5029741;28;20521;-50
2022/09/28 00:09:59;;;;;;;1.70;1.60;;;9.00;99.90;;;;;;5024978;28;20573;-52
2022/09/28 00:12:25;;;;;;;1.50;1.40;;;8.90;99.90;;;;;;5027368;28;20478;-51
2022/09/28 00:14:52;;;;;;;3.23;1.73;;;9.00;99.90;;;;;;5026578;28;20566;-51
2022/09/28 00:17:21;;;;;;;2.80;2.20;;;8.90;99.90;;;;;;5028139;28;20864;-51
2022/09/28 00:19:49;;;;;;;1.90;1.80;;;8.90;99.90;;;;;;5029351;28;20462;-50
2022/09/28 00:22:16;;;;;;;2.10;1.93;;;8.90;99.90;;;;;;5027508;28;20845;-51
2022/09/28 00:24:43;;;;;;;2.33;2.00;;;9.00;99.90;;;;;;5025319;28;20501;-50
2022/09/28 00:27:10;;;;;;;3.60;2.00;;;9.00;99.90;;;;;;5028364;28;20485;-50
2022/09/28 00:29:37;;;;;;;2.50;2.30;;;8.90;99.90;;;;;;5031189;28;20872;-51
2022/09/28 00:32:06;;;;;;;2.80;1.60;;;8.90;99.90;;;;;;5025219;28;20577;-50
2022/09/28 00:34:35;;;;;;;1.83;1.73;;;8.90;99.90;;;;;;5031039;28;20550;-50
2022/09/28 00:37:05;;;;;;;1.50;1.40;;;8.90;99.90;;;;;;5031468;28;20562;-51
2022/09/28 00:39:31;;;;;;;1.30;1.17;;;8.80;99.90;;;;;;5025848;28;20491;-51
2022/09/28 00:41:58;;;;;;;1.70;1.57;;;8.90;99.90;;;;;;5028521;28;21008;-50
2022/09/28 00:44:36;;;;;;;3.87;1.67;;;8.90;99.90;;;;;;5022510;28;21019;-50
2022/09/28 00:47:12;;;;;;;1.43;1.23;;;8.90;99.90;;;;;;5024892;28;20569;-50
2022/09/28 00:49:43;;;;;;;1.87;1.77;;;8.80;99.90;;;;;;5027915;28;20550;-50
2022/09/28 00:52:14;;;;;;;1.80;1.50;;;8.90;99.90;;;;;;5023392;28;20494;-50
2022/09/28 00:54:43;;;;;;;1.77;1.20;;;8.90;99.90;;;;;;5023167;28;20542;-50
2022/09/28 00:57:10;;;;;;;1.57;1.47;;;8.90;99.90;;;;;;5027657;28;21007;-50
2022/09/28 00:59:36;;;;;;;1.47;1.37;;;8.90;99.90;;;;;;5030354;28;20928;-50
2022/09/28 01:02:03;;;;;;;1.30;1.30;;;8.90;99.90;;;;;;5026020;28;20633;-50
2022/09/28 01:04:31;;;;;;;1.40;1.40;;;8.90;99.90;;;;;;5022462;28;20513;-50
2022/09/28 01:06:58;;;;;;;1.60;1.50;;;8.90;99.90;;;;;;5026122;28;20579;-49
2022/09/28 01:09:27;;;;;;;1.20;1.20;;;8.90;99.90;;;;;;5024067;28;20561;-50
2022/09/28 01:11:54;;;;;;;1.20;1.10;;;8.90;99.90;;;;;;5028714;28;20481;-50
2022/09/28 01:14:24;;;;;;;1.63;1.53;;;8.80;99.90;;;;;;5022516;28;20477;-50
2022/09/28 01:16:59;;;;;;;1.20;1.20;;;8.80;99.90;;;;;;5026763;28;20542;-51
2022/09/28 01:19:51;;;;;;;1.20;1.20;;;8.90;99.90;;;;;;5029319;28;21131;-50
2022/09/28 01:22:31;;;;;;;1.70;1.57;;;8.80;99.90;;;;;;5024758;28;20657;-50
2022/09/28 01:25:06;;;;;;;1.60;1.50;;;8.90;99.90;;;;;;5023002;28;20478;-51
2022/09/28 01:27:39;;;;;;;1.87;1.70;;;8.90;99.90;;;;;;5027188;28;20589;-50
2022/09/28 01:30:08;;;;;;;2.00;1.87;;;8.90;99.90;;;;;;5026037;28;20868;-51
2022/09/28 01:32:47;;;;;;;1.70;1.60;;;8.90;99.90;;;;;;5029805;28;20566;-50
2022/09/28 01:35:18;;;;;;;2.17;1.77;;;8.90;99.90;;;;;;5025810;28;20458;-51
2022/09/28 01:37:50;;;;;;;2.10;1.97;;;8.90;99.90;;;;;;5028174;28;20497;-50
2022/09/28 01:40:18;;;;;;;2.03;1.50;;;8.90;99.90;;;;;;5024362;28;20462;-50
2022/09/28 01:42:50;;;;;;;1.83;1.73;;;8.90;99.90;;;;;;5025949;28;20597;-50
2022/09/28 01:45:22;;;;;;;2.50;2.30;;;8.90;99.90;;;;;;5019540;28;20462;-50
2022/09/28 01:47:50;;;;;;;2.80;2.60;;;8.90;99.90;;;;;;5025570;28;20566;-50
2022/09/28 01:50:20;;;;;;;3.80;2.30;;;8.80;99.90;;;;;;5029661;28;20545;-51
2022/09/28 01:52:52;;;;;;;5.03;2.90;;;8.90;99.90;;;;;;5027817;28;20584;-51
2022/09/28 01:55:27;;;;;;;2.97;2.87;;;8.90;99.90;;;;;;5023379;28;20509;-50
2022/09/28 01:58:02;;;;;;;3.00;2.60;;;8.90;99.90;;;;;;5027061;28;20493;-50
2022/09/28 02:00:28;;;;;;;3.60;2.70;;;8.90;99.90;;;;;;5025547;28;20807;-51
2022/09/28 02:03:00;;;;;;;3.40;3.10;;;8.90;99.90;;;;;;5031388;28;20599;-49
2022/09/28 02:05:30;;;;;;;5.40;2.53;;;8.90;99.90;;;;;;5031337;28;21032;-50
2022/09/28 02:08:01;;;;;;;2.77;2.57;;;8.90;99.90;;;;;;5030249;28;20545;-50
2022/09/28 02:10:30;;;;;;;2.90;2.70;;;8.90;99.90;;;;;;5033097;28;20546;-48
2022/09/28 02:13:04;;;;;;;3.43;3.13;;;8.90;99.90;;;;;;5030451;28;20586;-48
2022/09/28 02:15:35;;;;;;;3.20;2.90;;;8.90;99.90;;;;;;5032479;28;20558;-49
2022/09/28 02:18:01;;;;;;;3.67;3.23;;;8.90;99.90;;;;;;5027093;28;20468;-48
2022/09/28 02:20:31;;;;;;;3.60;3.30;;;9.00;99.90;;;;;;5025542;28;20533;-48
2022/09/28 02:23:01;;;;;;;3.77;3.40;;;9.00;99.90;;;;;;5031889;28;20561;-48
2022/09/28 02:25:32;;;;;;;3.00;2.80;;;9.00;99.90;;;;;;5025428;28;20554;-48
2022/09/28 02:28:02;;;;;;;2.53;2.33;;;9.00;99.90;;;;;;5027674;28;20581;-48
2022/09/28 02:30:30;;;;;;;3.20;3.00;;;9.00;99.90;;;;;;5031466;28;20553;-48
2022/09/28 02:33:02;;;;;;;2.67;2.57;;;9.00;99.90;;;;;;5029808;28;20581;-48
2022/09/28 02:35:28;;;;;;;3.10;2.90;;;9.00;99.90;;;;;;5031207;28;20881;-48
2022/09/28 02:37:55;;;;;;;3.50;3.20;;;9.00;99.90;;;;;;5032459;28;20458;-49
2022/09/28 02:40:28;;;;;;;3.23;3.03;;;9.00;99.90;;;;;;5027897;28;20550;-48
2022/09/28 02:43:03;;;;;;;2.93;2.63;;;9.00;99.90;;;;;;5029517;28;20569;-48
2022/09/28 02:45:41;;;;;;;3.00;2.80;;;9.00;99.90;;;;;;5024004;28;20553;-48
2022/09/28 02:48:18;;;;;;;2.73;2.53;;;9.00;99.90;;;;;;5028990;28;20482;-48
2022/09/28 02:50:55;;;;;;;2.93;2.60;;;9.10;99.90;;;;;;5030363;28;20549;-50
2022/09/28 02:53:44;;;;;;;3.23;2.93;;;9.00;99.90;;;;;;5032497;28;20537;-48
2022/09/28 02:56:26;;;;;;;5.47;3.13;;;9.00;99.90;;;;;;5025068;28;20549;-48
2022/09/28 02:59:04;;;;;;;3.23;3.03;;;9.10;99.90;;;;;;5031399;28;20885;-49
2022/09/28 03:01:41;;;;;;;2.83;2.63;;;9.00;99.90;;;;;;5028016;28;20573;-49
2022/09/28 03:04:13;;;;;;;3.60;3.30;;;9.00;99.90;;;;;;5028596;28;20466;-48
2022/09/28 03:06:46;;;;;;;2.80;2.60;;;9.00;99.90;;;;;;5026722;28;20485;-48
2022/09/28 03:09:19;;;;;;;2.67;2.47;;;9.10;99.90;;;;;;5030742;28;21028;-48
2022/09/28 03:11:50;;;;;;;3.00;2.80;;;9.00;99.90;;;;;;5025672;28;20482;-48
2022/09/28 03:14:19;;;;;;;3.27;3.07;;;9.00;99.90;;;;;;5022611;28;20461;-48
2022/09/28 03:16:46;;;;;;;3.30;3.10;;;9.00;99.90;;;;;;5025682;28;20461;-48
2022/09/28 03:19:13;;;;;;;4.20;2.60;;;9.00;99.90;;;;;;5028416;28;20542;-48
2022/09/28 03:21:40;;;;;;;2.60;2.40;;;9.00;99.90;;;;;;5029438;28;20585;-47
2022/09/28 03:24:09;;;;;;;4.07;3.07;;;9.00;99.90;;;;;;5031482;28;20463;-48
2022/09/28 03:26:36;;;;;;;3.03;2.67;;;9.00;99.90;;;;;;5027108;28;20482;-48
2022/09/28 03:29:03;;;;;;;3.87;3.37;;;9.10;99.90;;;;;;5030549;28;20516;-48
2022/09/28 03:31:31;;;;;;;3.60;3.30;;;9.00;99.90;;;;;;5024266;28;20507;-48
2022/09/28 03:33:57;;;;;;;4.23;2.53;;;9.00;99.90;;;;;;5029893;28;20506;-48
2022/09/28 03:36:24;;;;;;;9.37;3.40;;;9.00;99.90;;;;;;5028990;28;20561;-49
2022/09/28 03:38:53;;;;;;;3.60;3.30;;;9.10;99.90;;;;;;5029441;28;20456;-48
2022/09/28 03:41:20;;;;;;;3.47;2.90;;;9.00;99.90;;;;;;5031244;28;20573;-48
2022/09/28 03:43:46;;;;;;;2.80;2.67;;;8.90;1.40;;;;;;5025245;28;20546;-50
2022/09/28 03:46:13;;;;;;;3.47;3.17;;;8.90;99.90;;;;;;5025740;28;20509;-50
2022/09/28 03:48:41;;;;;;;6.77;2.83;;;8.90;1.40;;;;;;5027851;28;20541;-49
2022/09/28 03:51:10;;;;;;;4.40;3.17;;;8.80;99.90;;;;;;5027937;28;21099;-50
2022/09/28 03:53:37;;;;;;;4.50;4.20;;;8.80;99.90;;;;;;5031254;28;20565;-49
2022/09/28 03:56:04;;;;;;;15.93;11.53;;;8.70;99.90;;;;;;5026414;28;21019;-48
2022/09/28 03:58:31;;;;;;;12.10;10.17;;;8.70;99.90;;;;;;5030730;28;20463;-49
2022/09/28 04:01:03;;;;;;;16.87;14.33;;;8.70;99.90;;;;;;5026561;28;20469;-49
2022/09/28 04:03:30;;;;;;;17.63;15.50;;;8.60;99.90;;;;;;5026307;28;20462;-48
2022/09/28 04:05:57;;;;;;;4.10;3.77;;;8.50;99.90;;;;;;5025697;28;20475;-48
2022/09/28 04:08:24;;;;;;;4.87;3.90;;;8.50;99.90;;;;;;5030797;28;21045;-48
2022/09/28 04:10:51;;;;;;;3.70;3.50;;;8.50;99.90;;;;;;5030507;28;20550;-49
2022/09/28 04:13:18;;;;;;;3.27;3.07;;;8.40;99.90;;;;;;5028503;28;21042;-48
2022/09/28 04:15:52;;;;;;;4.30;3.90;;;8.40;99.90;;;;;;5028699;28;20546;-49
2022/09/28 04:18:19;;;;;;;4.60;3.00;;;8.40;99.90;;;;;;5027703;28;20494;-48
2022/09/28 04:20:46;;;;;;;10.23;3.60;;;8.40;99.90;;;;;;5028785;28;20549;-48
2022/09/28 04:23:15;;;;;;;7.60;4.23;;;8.40;99.90;;;;;;5029613;28;20469;-48
2022/09/28 04:25:44;;;;;;;4.87;4.47;;;8.40;99.90;;;;;;5033350;28;20547;-49
2022/09/28 04:30:55;;;;;;;4.57;4.20;;;8.40;99.90;;;;;;5029120;28;21072;-48
2022/09/28 04:33:22;;;;;;;6.23;3.80;;;8.40;99.90;;;;;;5028584;28;20549;-48
2022/09/28 04:35:48;;;;;;;3.87;3.63;;;8.40;99.90;;;;;;5022163;28;20556;-47
2022/09/28 04:38:16;;;;;;;4.77;3.90;;;8.40;99.90;;;;;;5027410;28;20550;-48
2022/09/28 04:40:43;;;;;;;4.40;3.73;;;8.40;99.90;;;;;;5024616;28;20558;-48
2022/09/28 04:43:09;;;;;;;4.33;4.03;;;8.50;99.90;;;;;;5016531;28;20496;-48
2022/09/28 04:45:36;;;;;;;3.93;3.63;;;8.50;99.90;;;;;;5024655;28;20886;-49
2022/09/28 04:48:06;;;;;;;4.53;4.10;;;8.50;99.90;;;;;;5024946;28;20486;-48
2022/09/28 04:50:32;;;;;;;4.10;3.80;;;8.50;99.90;;;;;;5029781;28;20526;-49
2022/09/28 04:53:00;;;;;;;4.70;4.40;;;8.50;99.90;;;;;;5027863;28;21071;-48
2022/09/28 04:55:31;;;;;;;5.00;4.50;;;8.50;99.90;;;;;;5029874;28;20988;-48
2022/09/28 04:58:01;;;;;;;9.60;4.67;;;8.50;99.90;;;;;;5026408;28;20458;-47
2022/09/28 05:00:28;;;;;;;6.90;5.03;;;8.50;99.90;;;;;;5029129;28;20463;-49
2022/09/28 05:02:54;;;;;;;4.57;4.07;;;8.50;99.90;;;;;;5027264;28;21055;-48
2022/09/28 05:05:21;;;;;;;5.00;4.00;;;8.50;99.90;;;;;;5030890;28;20545;-49
2022/09/28 05:07:48;;;;;;;5.83;4.20;;;8.50;99.90;;;;;;5029962;28;20537;-48
2022/09/28 05:10:15;;;;;;;4.23;3.73;;;8.40;99.90;;;;;;5025534;28;20466;-48
2022/09/28 05:12:42;;;;;;;8.03;5.30;;;8.50;99.90;;;;;;5032048;28;20565;-48
2022/09/28 05:15:10;;;;;;;6.90;4.50;;;8.40;99.90;;;;;;5028525;28;20619;-48
2022/09/28 05:17:36;;;;;;;4.53;4.20;;;8.40;99.90;;;;;;5028965;28;21036;-48
2022/09/28 05:20:04;;;;;;;4.90;4.50;;;8.30;99.90;;;;;;5029739;28;20868;-49
2022/09/28 05:22:30;;;;;;;3.97;3.63;;;8.30;99.90;;;;;;5028078;28;20490;-48
2022/09/28 05:24:59;;;;;;;4.70;4.30;;;8.30;99.90;;;;;;5031809;28;20502;-48
2022/09/28 05:27:25;;;;;;;5.73;4.70;;;8.30;99.90;;;;;;5028324;28;20906;-48
2022/09/28 05:29:53;;;;;;;5.00;4.60;;;8.30;99.90;;;;;;5029435;28;20482;-48
2022/09/28 05:32:20;;;;;;;6.90;4.27;;;8.30;99.90;;;;;;5028651;28;20479;-48
2022/09/28 05:34:46;;;;;;;4.90;4.60;;;8.30;99.90;;;;;;5030756;28;20454;-48
2022/09/28 05:37:13;;;;;;;4.73;4.33;;;8.30;99.90;;;;;;5032475;28;20561;-48
2022/09/28 05:39:39;;;;;;;5.13;4.70;;;8.30;99.90;;;;;;5034821;28;20546;-48
2022/09/28 05:42:06;;;;;;;4.83;4.47;;;8.30;99.90;;;;;;5032585;28;20565;-48
2022/09/28 05:44:33;;;;;;;8.37;5.10;;;8.30;99.90;;;;;;5031790;28;21010;-49
2022/09/28 05:47:01;;;;;;;5.33;4.80;;;8.40;99.90;;;;;;5032018;28;20578;-49
2022/09/28 05:49:28;;;;;;;8.57;5.60;;;8.40;99.90;;;;;;5034384;28;20557;-49
2022/09/28 05:51:54;;;;;;;4.77;4.40;;;8.40;99.90;;;;;;5031871;28;20486;-48
2022/09/28 05:54:21;;;;;;;4.87;4.47;;;8.40;99.90;;;;;;5026781;28;20630;-49
2022/09/28 05:56:47;;;;;;;4.93;4.43;;;8.40;99.90;;;;;;5031540;28;20549;-48
2022/09/28 05:59:14;;;;;;;8.47;4.60;;;8.50;99.90;;;;;;5027690;28;20455;-49
2022/09/28 06:01:40;;;;;;;9.40;4.73;;;8.50;99.90;;;;;;5026629;28;20478;-49
2022/09/28 06:04:08;;;;;;;5.20;4.80;;;8.50;99.90;;;;;;5029899;28;20554;-49
2022/09/28 06:06:35;;;;;;;4.80;4.40;;;8.50;99.90;;;;;;5030113;28;20470;-47
2022/09/28 06:09:02;;;;;;;6.93;5.20;;;8.50;99.90;;;;;;5031176;28;20513;-49
2022/09/28 06:11:28;;;;;;;7.60;5.73;;;8.60;99.90;;;;;;5035391;28;20930;-49
2022/09/28 06:13:55;;;;;;;5.27;4.73;;;8.60;99.90;;;;;;5030746;28;20539;-49
2022/09/28 06:16:22;;;;;;;5.60;5.10;;;8.60;99.90;;;;;;5032931;28;20556;-49
2022/09/28 06:18:49;;;;;;;7.30;6.70;;;8.50;99.90;;;;;;5026018;28;20463;-48
2022/09/28 06:21:16;;;;;;;5.83;5.33;;;8.60;99.90;;;;;;5028791;28;20573;-48
2022/09/28 06:23:43;;;;;;;6.90;6.20;;;8.60;99.90;;;;;;5033144;28;20557;-49
2022/09/28 06:26:10;;;;;;;10.40;6.40;;;8.60;99.90;;;;;;5032522;28;21079;-48
2022/09/28 06:28:37;;;;;;;4.80;4.50;;;8.60;99.90;;;;;;5033382;28;20570;-49
2022/09/28 06:31:03;;;;;;;6.13;5.40;;;8.70;99.90;;;;;;5025431;28;20470;-48
2022/09/28 06:33:30;;;;;;;6.70;5.97;;;8.70;99.90;;;;;;5023264;28;21062;-47
2022/09/28 06:35:58;;;;;;;7.80;6.60;;;8.70;99.90;;;;;;5026831;28;20557;-48
2022/09/28 06:38:26;;;;;;;6.13;5.53;;;8.80;99.90;;;;;;5031838;28;21051;-48
2022/09/28 06:40:53;;;;;;;5.53;5.07;;;8.80;99.90;;;;;;5032120;28;20545;-47
2022/09/28 06:43:19;;;;;;;6.13;5.40;;;8.80;99.90;;;;;;5031042;28;20944;-48
2022/09/28 06:45:51;;;;;;;7.47;5.63;;;8.80;99.90;;;;;;5031127;28;20458;-48
2022/09/28 06:48:18;;;;;;;6.37;5.77;;;8.90;99.90;;;;;;5027819;28;20573;-48
2022/09/28 06:50:45;;;;;;;7.80;6.30;;;8.90;99.90;;;;;;5032246;28;20557;-48
2022/09/28 06:53:13;;;;;;;9.10;6.00;;;9.00;99.90;;;;;;5027364;28;20522;-48
2022/09/28 06:55:42;;;;;;;6.47;5.87;;;9.00;99.90;;;;;;5029857;28;20554;-47
2022/09/28 06:58:11;;;;;;;7.17;6.43;;;9.10;99.90;;;;;;5032199;28;20550;-47
2022/09/28 07:00:39;;;;;;;7.10;6.50;;;9.20;99.90;;;;;;5028754;28;20463;-48
2022/09/28 07:03:11;;;;;;;7.10;6.40;;;9.30;99.90;;;;;;5027683;28;20486;-47
2022/09/28 07:05:42;;;;;;;10.03;6.97;;;9.50;1.40;;;;;;5029365;28;20557;-47
2022/09/28 07:08:09;;;;;;;7.53;6.80;;;9.60;99.90;;;;;;5030144;28;20967;-48
2022/09/28 07:10:40;;;;;;;7.70;7.00;;;9.80;99.90;;;;;;5033286;28;20541;-47
2022/09/28 07:13:08;;;;;;;10.10;7.27;;;9.80;99.90;;;;;;5028567;28;21068;-47
2022/09/28 07:15:36;;;;;;;8.63;7.33;;;9.90;99.90;;;;;;5029920;28;20465;-48
2022/09/28 07:18:05;;;;;;;6.80;6.10;;;10.00;99.90;;;;;;5026908;28;20493;-48
2022/09/28 07:20:32;;;;;;;8.60;7.23;;;10.00;99.90;;;;;;5024730;28;20550;-47
2022/09/28 07:23:00;;;;;;;6.53;6.00;;;10.10;99.90;;;;;;5026883;28;20494;-47
2022/09/28 07:25:29;;;;;;;11.20;7.73;;;10.20;99.90;;;;;;5031023;28;20459;-47
2022/09/28 07:27:56;;;;;;;10.23;7.63;;;10.30;99.90;;;;;;5028816;28;20482;-47
2022/09/28 07:30:25;;;;;;;7.10;6.50;;;10.40;99.90;;;;;;5025830;28;20839;-47
2022/09/28 07:32:52;;;;;;;7.00;6.33;;;10.40;46.60;;;;;;5023661;28;21070;-48
2022/09/28 07:35:19;;;;;;;7.23;6.53;;;10.40;60.20;;;;;;5031140;28;20557;-47
2022/09/28 07:37:45;;;;;;;6.40;5.80;;;10.50;64.30;;;;;;5026640;28;20460;-48
2022/09/28 07:42:56;;;;;;;5.40;4.90;;;10.60;67.60;;;;;;5021184;28;20564;-47
2022/09/28 07:45:24;;;;;;;6.17;5.67;;;10.60;74.60;;;;;;5025923;28;20919;-48
2022/09/28 07:47:54;;;;;;;5.53;4.80;;;10.70;81.60;;;;;;5024649;28;20493;-48
2022/09/28 07:50:21;;;;;;;6.80;5.90;;;10.70;98.50;;;;;;5031434;28;20471;-48
2022/09/28 07:52:48;;;;;;;5.37;4.83;;;10.80;99.40;;;;;;5028619;28;20569;-47
2022/09/28 07:55:14;;;;;;;5.73;3.80;;;10.80;99.90;;;;;;5033526;28;20460;-48
2022/09/28 07:57:41;;;;;;;3.80;3.47;;;10.80;99.90;;;;;;5034938;28;20545;-48
2022/09/28 08:00:08;;;;;;;5.53;4.90;;;10.90;99.90;;;;;;5031054;28;20467;-49
2022/09/28 08:02:37;;;;;;;5.77;5.27;;;11.00;99.90;;;;;;5031777;28;20502;-49
2022/09/28 08:05:04;;;;;;;4.67;4.27;;;11.00;99.90;;;;;;5038305;28;20451;-50
2022/09/28 08:07:31;;;;;;;6.33;4.50;;;11.00;99.90;;;;;;5030049;28;20466;-48
2022/09/28 08:09:58;;;;;;;8.47;5.67;;;11.10;99.90;;;;;;5026196;28;20447;-48
2022/09/28 08:12:24;;;;;;;5.20;4.80;;;11.20;99.90;;;;;;5031803;28;20565;-48
2022/09/28 08:14:51;;;;;;;5.70;5.30;;;11.20;99.90;;;;;;5033167;28;20554;-49
2022/09/28 08:17:17;;;;;;;5.10;4.70;;;11.30;99.90;;;;;;5030752;28;20462;-50
2022/09/28 08:22:31;;;;;;;8.07;4.53;;;11.50;99.90;;;;;;5029222;28;20570;-49
2022/09/28 08:24:57;;;;;;;4.60;4.20;;;11.50;99.90;;;;;;5032670;28;20458;-48
2022/09/28 08:27:24;;;;;;;3.87;3.50;;;11.60;99.90;;;;;;5029683;28;20550;-48
2022/09/28 08:29:50;;;;;;;4.80;3.60;;;11.50;99.90;;;;;;5031682;28;20573;-49
2022/09/28 08:32:18;;;;;;;6.93;5.70;;;11.60;99.90;;;;;;5029998;28;20573;-49
2022/09/28 08:34:46;;;;;;;5.40;4.23;;;11.60;99.90;;;;;;5029653;28;20467;-48
2022/09/28 08:37:12;;;;;;;3.20;3.00;;;11.60;99.90;;;;;;5028137;28;20549;-47
2022/09/28 08:39:39;;;;;;;3.23;3.03;;;11.40;99.90;;;;;;5030095;28;20547;-49
2022/09/28 08:42:25;;;;;;;3.77;3.33;;;11.40;99.90;;;;;;5029938;28;21226;-49
2022/09/28 08:44:56;;;;;;;5.90;4.03;;;11.50;99.90;;;;;;5031390;28;20518;-49
2022/09/28 08:50:21;;;;;;;4.27;3.87;;;11.70;99.90;;;;;;5026921;28;20469;-49
2022/09/28 08:52:56;;;;;;;3.53;3.23;;;11.70;99.90;;;;;;5026968;28;20570;-48
2022/09/28 08:55:30;;;;;;;5.17;4.77;;;11.70;99.90;;;;;;5025221;28;20549;-49
2022/09/28 08:58:01;;;;;;;8.73;4.77;;;11.70;99.90;;;;;;5029291;28;20560;-49
2022/09/28 09:00:33;;;;;;;6.37;5.77;;;11.80;99.90;;;;;;5022379;28;20459;-48
2022/09/28 09:03:04;;;;;;;10.60;5.23;;;11.80;99.90;;;;;;5018057;28;21023;-49
2022/09/28 09:05:46;;;;;;;7.53;5.20;;;11.80;99.90;;;;;;5027995;28;20554;-49
2022/09/28 09:08:27;;;;;;;13.30;5.20;;;11.70;99.90;;;;;;5022379;28;20482;-49
2022/09/28 09:11:02;;;;;;;6.33;5.00;;;11.70;99.90;;;;;;5025362;28;20549;-49
2022/09/28 09:14:06;;;;;;;7.03;6.30;;;11.70;99.90;;;;;;5028181;28;20557;-47
2022/09/28 09:16:43;;;;;;;9.50;6.10;;;11.70;99.90;;;;;;5029609;28;20549;-49
2022/09/28 09:19:16;;;;;;;8.10;6.77;;;11.60;99.90;;;;;;5027088;28;20483;-48
2022/09/28 09:21:51;;;;;;;18.63;6.77;;;11.60;99.90;;;;;;5026716;28;20478;-49
2022/09/28 09:24:26;;;;;;;11.20;7.57;;;11.50;99.90;;;;;;5017960;28;21047;-49
2022/09/28 09:27:03;;;;;;;8.60;6.90;;;11.40;99.90;;;;;;5026165;28;20466;-48
2022/09/28 09:29:39;;;;;;;6.80;6.20;;;11.40;99.90;;;;;;5021724;28;20581;-49
2022/09/28 09:32:18;;;;;;;8.70;6.13;;;11.30;99.90;;;;;;5026261;28;21086;-48
2022/09/28 09:34:59;;;;;;;13.03;6.67;;;11.30;99.90;;;;;;5029118;28;20526;-52
2022/09/28 09:37:41;;;;;;;9.57;7.43;;;11.20;99.90;;;;;;5029582;28;20557;-48
2022/09/28 09:40:23;;;;;;;6.03;5.53;;;11.20;99.90;;;;;;5024588;28;20570;-49
2022/09/28 09:43:00;;;;;;;10.00;6.77;;;11.20;99.90;;;;;;5029291;28;20478;-49
2022/09/28 09:45:44;;;;;;;11.27;6.40;;;11.20;99.90;;;;;;5026368;28;20986;-49
2022/09/28 09:48:17;;;;;;;11.10;7.67;;;11.20;99.90;;;;;;5028032;28;20459;-50
2022/09/28 09:50:48;;;;;;;10.47;7.90;;;11.20;99.90;;;;;;5029359;28;20466;-49
2022/09/28 09:53:23;;;;;;;9.27;7.60;;;11.20;99.90;;;;;;5033370;28;20522;-50
2022/09/28 09:55:56;;;;;;;9.13;7.77;;;11.10;99.90;;;;;;5033620;28;20530;-52
2022/09/28 09:58:28;;;;;;;9.30;7.17;;;11.10;99.90;;;;;;5031422;28;20454;-50
2022/09/28 10:00:59;;;;;;;7.57;6.27;;;11.00;99.90;;;;;;5032706;28;20541;-51
2022/09/28 10:03:29;;;;;;;11.13;7.73;;;11.00;99.90;;;;;;5031360;28;21012;-49
2022/09/28 10:06:00;;;;;;;7.53;6.80;;;11.10;99.90;;;;;;5030246;28;20524;-47
2022/09/28 10:08:28;;;;;;;18.30;7.93;;;11.10;99.90;;;;;;5030868;28;20486;-48
2022/09/28 10:11:06;;;;;;;7.90;7.20;;;11.10;99.90;;;;;;5029974;28;20558;-47
2022/09/28 10:13:33;;;;;;;7.70;7.00;;;11.10;99.90;;;;;;5022713;28;21627;-47
2022/09/28 10:15:59;;;;;;;9.70;7.00;;;11.30;99.90;;;;;;5027633;28;20856;-49
2022/09/28 10:18:27;;;;;;;11.77;6.67;;;11.30;95.10;;;;;;5027138;28;20530;-50
2022/09/28 10:20:54;;;;;;;9.80;5.60;;;11.50;92.50;;;;;;5025181;28;20915;-49
2022/09/28 10:23:22;;;;;;;5.63;5.13;;;11.60;88.60;;;;;;5027269;28;20551;-49
2022/09/28 10:25:53;;;;;;;9.17;5.40;;;11.50;99.90;;;;;;5032751;28;20964;-49
2022/09/28 10:28:25;;;;;;;4.80;4.40;;;11.60;99.90;;;;;;5031772;28;20549;-49
2022/09/28 10:30:52;;;;;;;4.00;3.70;;;11.60;99.90;;;;;;5031450;28;21936;-49
2022/09/28 10:33:30;;;;;;;3.40;3.20;;;11.70;99.90;;;;;;5033617;28;20538;-49
2022/09/28 10:35:58;;;;;;;3.23;3.03;;;11.70;99.90;;;;;;5032334;28;20843;-48
2022/09/28 10:38:25;;;;;;;5.13;3.13;;;11.70;99.90;;;;;;5033668;28;20465;-48
2022/09/28 10:40:55;;;;;;;4.33;3.93;;;11.80;99.90;;;;;;5031799;28;20469;-49
2022/09/28 10:43:24;;;;;;;3.17;2.97;;;11.80;29.70;;;;;;5032440;28;20462;-49
2022/09/28 10:46:00;;;;;;;2.40;2.30;;;11.90;24.40;;;;;;5029385;28;20597;-48
2022/09/28 10:48:30;;;;;;;2.30;2.20;;;12.10;99.90;;;;;;5031219;28;20457;-49
2022/09/28 10:51:02;;;;;;;2.27;2.07;;;12.20;37.70;;;;;;5032125;28;20505;-49
2022/09/28 10:53:28;;;;;;;5.13;2.50;;;12.30;91.30;;;;;;5033236;28;20538;-50
2022/09/28 10:56:02;;;;;;;3.33;1.67;;;12.60;65.50;;;;;;5029774;28;20505;-49
2022/09/28 10:58:35;;;;;;;7.60;2.60;;;12.70;82.30;;;;;;5030188;28;20459;-49
2022/09/28 11:01:10;;;;;;;2.90;2.70;;;12.90;85.60;;;;;;5023164;28;20563;-48
2022/09/28 11:03:51;;;;;;;2.67;2.20;;;13.10;82.40;;;;;;5031980;28;20616;-48
2022/09/28 11:06:25;;;;;;;3.23;2.40;;;13.20;82.90;;;;;;5027787;28;20508;-48
2022/09/28 11:08:53;;;;;;;2.83;2.00;;;13.10;84.80;;;;;;5027834;28;20482;-49
2022/09/28 11:11:22;;;;;;;7.83;2.07;;;13.00;86.40;;;;;;5031134;28;20961;-49
2022/09/28 11:13:51;;;;;;;2.23;1.80;;;12.90;81.30;;;;;;5030999;28;20517;-48
2022/09/28 11:16:28;;;;;;;2.27;1.87;;;13.00;69.40;;;;;;5031170;28;20557;-49
2022/09/28 11:18:56;;;;;;;19.97;5.73;;;13.10;87.50;;;;;;5032292;28;20431;-50
2022/09/28 11:21:25;;;;;;;9.03;3.60;;;13.20;74.00;;;;;;5028135;28;20572;-51
2022/09/28 11:23:57;;;;;;;8.50;4.67;;;13.20;77.40;;;;;;5024931;28;20554;-49
2022/09/28 11:26:25;;;;;;;3.97;2.80;;;13.10;69.50;;;;;;5023530;28;20486;-51
2022/09/28 11:28:52;;;;;;;3.20;1.83;;;13.20;75.60;;;;;;5026290;28;20573;-51
2022/09/28 11:31:25;;;;;;;2.23;2.03;;;13.20;81.40;;;;;;5019570;28;21095;-48
2022/09/28 11:34:03;;;;;;;9.20;1.60;;;13.10;98.20;;;;;;5028835;28;20578;-50
2022/09/28 11:36:43;;;;;;;6.27;1.40;;;12.90;81.80;;;;;;5030135;28;20488;-50
2022/09/28 11:39:17;;;;;;;1.70;1.23;;;12.90;81.70;;;;;;5030095;28;20470;-49
2022/09/28 11:41:57;;;;;;;1.37;1.27;;;12.80;84.00;;;;;;5024235;28;20569;-49
2022/09/28 11:44:37;;;;;;;3.83;1.47;;;12.80;76.80;;;;;;5024453;28;20459;-50
2022/09/28 11:47:34;;;;;;;4.83;1.60;;;12.90;79.80;;;;;;5026132;28;20775;-49
2022/09/28 11:50:06;;;;;;;3.10;1.50;;;13.10;91.60;;;;;;5016234;28;20573;-49
2022/09/28 11:52:41;;;;;;;4.00;1.53;;;13.10;94.90;;;;;;5027617;28;20577;-49
2022/09/28 11:55:15;;;;;;;1.20;1.10;;;13.10;99.90;;;;;;5027252;28;20490;-49
2022/09/28 11:57:50;;;;;;;2.13;1.40;;;13.10;92.00;;;;;;5027335;28;20561;-49
2022/09/28 12:00:21;;;;;;;3.53;1.23;;;13.10;78.60;;;;;;5029012;28;20550;-50
2022/09/28 12:02:51;;;;;;;2.07;1.23;;;13.10;83.70;;;;;;5026816;28;20510;-49
2022/09/28 12:05:24;;;;;;;3.23;1.43;;;13.00;84.10;;;;;;5029454;28;20558;-49
2022/09/28 12:07:54;;;;;;;2.57;1.20;;;12.70;75.10;;;;;;5029681;28;20896;-49
2022/09/28 12:10:31;;;;;;;4.40;1.17;;;12.70;75.20;;;;;;5031186;28;20573;-50
2022/09/28 12:13:01;;;;;;;1.97;1.23;;;12.60;59.00;;;;;;5028002;28;20950;-49
2022/09/28 12:15:33;;;;;;;4.97;3.03;;;12.60;54.90;;;;;;5030004;28;20466;-49
2022/09/28 12:18:03;;;;;;;1.47;1.37;;;12.50;49.60;;;;;;5030125;28;20478;-50
2022/09/28 12:20:34;;;;;;;2.07;1.30;;;12.30;52.30;;;;;;5023639;28;20458;-49
2022/09/28 12:23:07;;;;;;;1.30;1.20;;;12.40;59.70;;;;;;5020650;28;20575;-48
2022/09/28 12:25:39;;;;;;;3.67;0.97;;;12.50;68.80;;;;;;5031806;28;20447;-48
2022/09/28 12:28:16;;;;;;;3.87;1.03;;;12.50;67.70;;;;;;5032816;28;20450;-49
2022/09/28 12:30:45;;;;;;;2.73;1.63;;;12.40;79.70;;;;;;5029822;28;20573;-48
2022/09/28 12:33:14;;;;;;;4.00;1.53;;;12.50;84.60;;;;;;5030273;28;20570;-49
2022/09/28 12:35:56;;;;;;;1.90;1.27;;;12.50;85.50;;;;;;5032145;28;20502;-49
2022/09/28 12:38:38;;;;;;;1.47;1.13;;;12.60;72.50;;;;;;5029584;28;20553;-51
2022/09/28 12:41:16;;;;;;;1.00;1.00;;;12.50;81.40;;;;;;5030896;28;20462;-49
2022/09/28 12:43:57;;;;;;;5.50;2.03;;;12.60;75.70;;;;;;5028909;28;20589;-49
2022/09/28 12:46:36;;;;;;;1.20;1.10;;;12.60;77.70;;;;;;5025777;28;20550;-49
2022/09/28 12:49:22;;;;;;;1.53;1.07;;;12.60;72.80;;;;;;5027711;28;20549;-48
2022/09/28 12:51:52;;;;;;;1.67;0.87;;;12.60;79.20;;;;;;5028205;28;20494;-48
2022/09/28 12:54:46;;;;;;;1.30;1.20;;;12.40;85.40;;;;;;5030361;28;20531;-49
2022/09/28 12:57:35;;;;;;;5.70;1.00;;;12.50;79.70;;;;;;5018555;28;20554;-47
2022/09/28 13:00:08;;;;;;;1.93;1.03;;;12.40;78.20;;;;;;5029342;28;20489;-48
2022/09/28 13:03:06;;;;;;;2.10;0.90;;;12.50;79.00;;;;;;5027927;28;20577;-49
2022/09/28 13:05:55;;;;;;;1.90;1.00;;;12.60;79.40;;;;;;5029302;28;20459;-49
2022/09/28 13:08:31;;;;;;;0.87;0.87;;;12.60;94.20;;;;;;5024381;28;20466;-49
2022/09/28 13:11:08;;;;;;;0.87;0.87;;;12.60;93.10;;;;;;5027938;28;20999;-48
2022/09/28 13:13:43;;;;;;;1.03;1.00;;;12.70;85.50;;;;;;5028118;28;20457;-49
2022/09/28 13:16:17;;;;;;;2.00;1.00;;;12.90;93.10;;;;;;5030662;28;20516;-48
2022/09/28 13:18:53;;;;;;;1.00;0.80;;;13.10;88.90;;;;;;5030309;28;20467;-48
2022/09/28 13:21:30;;;;;;;1.67;0.97;;;13.20;85.80;;;;;;5026132;28;21522;-49